createdAt,value
2022-11-18T00:00:52.113Z,941.81
2022-11-18T00:03:18.536Z,941.85
2022-11-18T00:05:44.865Z,941.73
2022-11-18T00:08:11.221Z,941.69
2022-11-18T00:10:37.556Z,941.80
2022-11-18T00:13:03.933Z,941.78
2022-11-18T00:15:31.868Z,941.84
2022-11-18T00:17:56.643Z,941.81
2022-11-18T00:20:23.002Z,941.82
2022-11-18T00:22:49.346Z,941.78
2022-11-18T00:25:15.709Z,941.72
2022-11-18T00:27:42.064Z,941.79
2022-11-18T00:30:08.426Z,941.82
2022-11-18T00:32:34.844Z,941.81
2022-11-18T00:35:01.198Z,941.84
2022-11-18T00:37:27.551Z,941.84
2022-11-18T00:39:53.910Z,941.77
2022-11-18T00:42:20.339Z,941.71
2022-11-18T00:44:46.700Z,941.64
2022-11-18T00:47:13.046Z,941.72
2022-11-18T00:49:39.416Z,941.78
2022-11-18T00:52:05.861Z,941.75
2022-11-18T00:54:32.205Z,941.78
2022-11-18T00:56:58.566Z,941.76
2022-11-18T00:59:24.916Z,941.77
2022-11-18T01:01:51.350Z,941.72
2022-11-18T01:04:17.652Z,941.73
2022-11-18T01:06:43.984Z,941.67
2022-11-18T01:09:10.351Z,941.74
2022-11-18T01:11:36.750Z,941.68
2022-11-18T01:14:03.099Z,941.74
2022-11-18T01:16:29.427Z,941.81
2022-11-18T01:18:56.527Z,941.80
2022-11-18T01:21:22.146Z,941.82
2022-11-18T01:23:48.526Z,941.83
2022-11-18T01:26:14.846Z,941.81
2022-11-18T01:28:41.250Z,941.82
2022-11-18T01:31:07.575Z,941.82
2022-11-18T01:33:33.952Z,941.80
2022-11-18T01:36:00.310Z,941.83
2022-11-18T01:38:26.685Z,941.82
2022-11-18T01:40:53.013Z,941.78
2022-11-18T01:43:19.474Z,941.78
2022-11-18T01:45:45.806Z,941.79
2022-11-18T01:48:12.186Z,941.70
2022-11-18T01:50:38.588Z,941.79
2022-11-18T01:53:05.041Z,941.78
2022-11-18T01:55:31.380Z,941.80
2022-11-18T01:57:57.728Z,941.77
2022-11-18T02:00:24.107Z,941.78
2022-11-18T02:02:50.482Z,941.77
2022-11-18T02:05:16.817Z,941.74
2022-11-18T02:07:43.317Z,941.76
2022-11-18T02:10:09.585Z,941.83
2022-11-18T02:12:35.929Z,941.73
2022-11-18T02:15:02.360Z,941.76
2022-11-18T02:17:28.702Z,941.67
2022-11-18T02:19:55.053Z,941.71
2022-11-18T02:22:21.403Z,941.74
2022-11-18T02:24:48.079Z,941.76
2022-11-18T02:27:14.462Z,941.73
2022-11-18T02:29:40.784Z,941.77
2022-11-18T02:32:07.167Z,941.75
2022-11-18T02:34:33.537Z,941.76
2022-11-18T02:36:59.906Z,941.78
2022-11-18T02:39:26.231Z,941.77
2022-11-18T02:41:52.710Z,941.72
2022-11-18T02:44:19.079Z,941.68
2022-11-18T02:46:45.446Z,941.74
2022-11-18T02:49:11.788Z,941.78
2022-11-18T02:51:38.135Z,941.72
2022-11-18T02:54:04.496Z,941.64
2022-11-18T02:56:30.855Z,941.62
2022-11-18T02:58:57.218Z,941.69
2022-11-18T03:01:23.603Z,941.75
2022-11-18T03:03:49.920Z,941.70
2022-11-18T03:06:16.308Z,941.77
2022-11-18T03:08:42.672Z,941.80
2022-11-18T03:11:09.025Z,941.87
2022-11-18T03:13:35.425Z,941.84
2022-11-18T03:16:01.805Z,941.87
2022-11-18T03:18:28.153Z,941.86
2022-11-18T03:20:54.568Z,941.74
2022-11-18T03:23:20.920Z,941.73
2022-11-18T03:25:47.300Z,941.75
2022-11-18T03:28:13.671Z,941.67
2022-11-18T03:30:40.014Z,941.70
2022-11-18T03:33:06.349Z,941.72
2022-11-18T03:35:32.703Z,941.60
2022-11-18T03:37:59.062Z,941.67
2022-11-18T03:40:25.452Z,941.68
2022-11-18T03:42:51.817Z,941.75
2022-11-18T03:45:18.153Z,941.69
2022-11-18T03:47:44.530Z,941.62
2022-11-18T03:50:10.900Z,941.59
2022-11-18T03:52:37.252Z,941.58
2022-11-18T03:55:03.629Z,941.49
2022-11-18T03:57:29.994Z,941.48
2022-11-18T03:59:56.369Z,941.53
2022-11-18T04:02:22.696Z,941.59
2022-11-18T04:04:49.132Z,941.58
2022-11-18T04:07:15.535Z,941.51
2022-11-18T04:09:41.829Z,941.54
2022-11-18T04:12:08.189Z,941.57
2022-11-18T04:14:34.565Z,941.54
2022-11-18T04:17:00.927Z,941.58
2022-11-18T04:19:27.272Z,941.60
2022-11-18T04:21:53.631Z,941.68
2022-11-18T04:24:20.020Z,941.67
2022-11-18T04:26:46.380Z,941.71
2022-11-18T04:29:12.733Z,941.82
2022-11-18T04:31:39.093Z,941.77
2022-11-18T04:34:05.441Z,941.66
2022-11-18T04:36:31.806Z,941.72
2022-11-18T04:38:58.222Z,941.81
2022-11-18T04:41:24.563Z,941.76
2022-11-18T04:43:50.933Z,941.84
2022-11-18T04:46:17.342Z,941.97
2022-11-18T04:48:43.686Z,941.91
2022-11-18T04:51:10.022Z,941.93
2022-11-18T04:53:36.418Z,941.84
2022-11-18T04:56:02.773Z,941.76
2022-11-18T04:58:29.164Z,941.80
2022-11-18T05:00:55.539Z,941.89
2022-11-18T05:03:21.881Z,941.82
2022-11-18T05:05:48.213Z,941.76
2022-11-18T05:08:14.564Z,941.85
2022-11-18T05:10:40.920Z,941.73
2022-11-18T05:13:07.269Z,941.77
2022-11-18T05:15:33.603Z,941.78
2022-11-18T05:17:59.953Z,941.78
2022-11-18T05:20:26.307Z,941.84
2022-11-18T05:22:52.691Z,941.83
2022-11-18T05:25:19.047Z,941.83
2022-11-18T05:27:45.396Z,941.95
2022-11-18T05:30:11.755Z,941.92
2022-11-18T05:32:38.139Z,942.06
2022-11-18T05:35:04.511Z,941.89
2022-11-18T05:37:30.914Z,941.96
2022-11-18T05:39:57.267Z,941.89
2022-11-18T05:42:23.659Z,941.91
2022-11-18T05:44:54.654Z,941.84
2022-11-18T05:47:16.399Z,941.87
2022-11-18T05:49:42.744Z,941.92
2022-11-18T05:52:09.126Z,941.90
2022-11-18T05:54:35.457Z,941.91
2022-11-18T05:57:01.866Z,941.97
2022-11-18T05:59:28.204Z,941.89
2022-11-18T06:01:54.566Z,941.80
2022-11-18T06:04:21.063Z,941.91
2022-11-18T06:06:47.478Z,941.88
2022-11-18T06:09:13.809Z,941.87
2022-11-18T06:11:40.174Z,941.87
2022-11-18T06:14:06.571Z,941.83
2022-11-18T06:16:37.904Z,941.84
2022-11-18T06:18:59.287Z,941.87
2022-11-18T06:21:25.688Z,941.85
2022-11-18T06:23:52.027Z,941.93
2022-11-18T06:26:18.382Z,941.88
2022-11-18T06:28:44.750Z,941.76
2022-11-18T06:31:11.154Z,941.78
2022-11-18T06:33:37.646Z,941.73
2022-11-18T06:36:04.004Z,941.73
2022-11-18T06:38:30.359Z,941.77
2022-11-18T06:40:56.759Z,941.71
2022-11-18T06:43:23.164Z,941.69
2022-11-18T06:45:49.534Z,941.63
2022-11-18T06:48:15.892Z,941.76
2022-11-18T06:50:42.332Z,941.76
2022-11-18T06:53:08.692Z,941.75
2022-11-18T06:55:35.090Z,941.77
2022-11-18T06:58:01.452Z,941.73
2022-11-18T07:00:27.831Z,941.76
2022-11-18T07:02:54.184Z,941.71
2022-11-18T07:05:20.581Z,941.75
2022-11-18T07:07:47.045Z,941.81
2022-11-18T07:10:13.327Z,941.85
2022-11-18T07:12:39.658Z,941.80
2022-11-18T07:15:06.055Z,941.81
2022-11-18T07:17:32.427Z,941.77
2022-11-18T07:19:58.811Z,941.63
2022-11-18T07:22:25.160Z,941.50
2022-11-18T07:24:51.505Z,941.49
2022-11-18T07:27:17.833Z,941.49
2022-11-18T07:29:44.214Z,941.55
2022-11-18T07:32:10.548Z,941.54
2022-11-18T07:34:36.899Z,941.56
2022-11-18T07:37:03.258Z,941.59
2022-11-18T07:39:29.605Z,941.47
2022-11-18T07:41:56.048Z,941.61
2022-11-18T07:44:22.439Z,941.45
2022-11-18T07:46:48.784Z,941.40
2022-11-18T07:49:15.470Z,941.48
2022-11-18T07:51:41.532Z,941.47
2022-11-18T07:54:07.917Z,941.45
2022-11-18T07:56:34.346Z,941.46
2022-11-18T07:59:00.741Z,941.58
2022-11-18T08:01:27.124Z,941.64
2022-11-18T08:03:53.460Z,941.57
2022-11-18T08:06:19.798Z,941.73
2022-11-18T08:08:46.188Z,941.75
2022-11-18T08:11:15.200Z,941.78
2022-11-18T08:13:38.896Z,941.85
2022-11-18T08:16:05.255Z,941.97
2022-11-18T08:18:31.604Z,941.92
2022-11-18T08:20:57.960Z,941.80
2022-11-18T08:23:30.184Z,941.66
2022-11-18T08:25:50.986Z,941.64
2022-11-18T08:28:17.430Z,941.64
2022-11-18T08:30:43.709Z,941.47
2022-11-18T08:33:10.137Z,941.50
2022-11-18T08:35:36.505Z,941.36
2022-11-18T08:38:02.894Z,941.45
2022-11-18T08:40:29.223Z,941.41
2022-11-18T08:42:55.597Z,941.39
2022-11-18T08:45:21.959Z,941.12
2022-11-18T08:47:48.314Z,941.01
2022-11-18T08:50:14.645Z,941.08
2022-11-18T08:52:41.022Z,941.09
2022-11-18T08:55:07.397Z,941.21
2022-11-18T08:57:33.743Z,941.10
2022-11-18T09:00:00.212Z,940.87
2022-11-18T09:02:26.459Z,940.76
2022-11-18T09:04:52.794Z,940.72
2022-11-18T09:07:19.211Z,940.63
2022-11-18T09:09:45.490Z,940.62
2022-11-18T09:12:11.880Z,940.54
2022-11-18T09:15:13.018Z,940.60
2022-11-18T09:17:04.606Z,940.74
2022-11-18T09:19:47.927Z,940.67
2022-11-18T09:21:57.337Z,940.56
2022-11-18T09:24:23.709Z,940.56
2022-11-18T09:26:50.097Z,940.53
2022-11-18T09:29:16.418Z,940.63
2022-11-18T09:31:42.778Z,940.68
2022-11-18T09:34:09.107Z,940.55
2022-11-18T09:36:35.542Z,940.51
2022-11-18T09:39:01.910Z,940.44
2022-11-18T09:41:28.535Z,940.23
2022-11-18T09:43:54.894Z,940.41
2022-11-18T09:46:21.291Z,940.32
2022-11-18T09:48:47.624Z,940.03
2022-11-18T09:51:13.977Z,939.95
2022-11-18T09:53:40.341Z,940.00
2022-11-18T09:56:06.785Z,940.02
2022-11-18T09:58:33.117Z,939.90
2022-11-18T10:00:59.471Z,940.02
2022-11-18T10:03:25.830Z,940.14
2022-11-18T10:05:52.225Z,939.90
2022-11-18T10:08:18.571Z,939.85
2022-11-18T10:10:44.914Z,939.96
2022-11-18T10:13:11.249Z,939.85
2022-11-18T10:15:37.648Z,939.87
2022-11-18T10:18:03.990Z,939.92
2022-11-18T10:20:30.371Z,940.11
2022-11-18T10:22:56.735Z,939.98
2022-11-18T10:25:23.116Z,939.72
2022-11-18T10:27:49.473Z,939.69
2022-11-18T10:30:15.848Z,939.64
2022-11-18T10:32:42.173Z,939.78
2022-11-18T10:35:08.679Z,939.83
2022-11-18T10:38:00.635Z,939.67
2022-11-18T10:40:01.407Z,939.49
2022-11-18T10:42:27.768Z,939.50
2022-11-18T10:44:54.149Z,939.48
2022-11-18T10:47:20.521Z,939.60
2022-11-18T10:49:46.863Z,939.43
2022-11-18T10:52:13.209Z,939.38
2022-11-18T10:54:39.597Z,939.22
2022-11-18T10:57:05.950Z,939.19
2022-11-18T10:59:32.338Z,939.35
2022-11-18T11:01:58.772Z,939.38
2022-11-18T11:04:25.040Z,939.41
2022-11-18T11:06:51.393Z,939.23
2022-11-18T11:09:17.772Z,939.24
2022-11-18T11:11:44.131Z,939.23
2022-11-18T11:14:10.547Z,939.35
2022-11-18T11:16:36.894Z,939.18
2022-11-18T11:19:03.257Z,938.98
2022-11-18T11:21:29.694Z,939.16
2022-11-18T11:23:55.992Z,939.22
2022-11-18T11:28:48.661Z,939.01
2022-11-18T11:31:15.009Z,938.96
2022-11-18T11:33:41.370Z,938.93
2022-11-18T11:36:07.768Z,938.97
2022-11-18T11:38:34.124Z,938.93
2022-11-18T11:41:00.509Z,938.84
2022-11-18T11:43:26.848Z,938.67
2022-11-18T11:45:53.239Z,938.80
2022-11-18T11:48:19.574Z,938.81
2022-11-18T11:50:52.896Z,938.90
2022-11-18T11:53:12.303Z,938.82
2022-11-18T11:55:38.687Z,938.84
2022-11-18T11:58:05.079Z,938.78
2022-11-18T12:00:31.414Z,938.83
2022-11-18T12:02:57.812Z,938.69
2022-11-18T12:05:24.149Z,938.67
2022-11-18T12:07:50.471Z,938.91
2022-11-18T12:10:16.857Z,938.81
2022-11-18T12:12:43.196Z,938.81
2022-11-18T12:15:09.537Z,938.57
2022-11-18T12:17:35.857Z,938.70
2022-11-18T12:20:02.273Z,938.75
2022-11-18T12:22:28.586Z,938.50
2022-11-18T12:24:54.972Z,938.39
2022-11-18T12:27:21.292Z,938.35
2022-11-18T12:29:47.636Z,938.31
2022-11-18T12:32:14.014Z,938.17
2022-11-18T12:34:40.354Z,938.31
2022-11-18T12:37:06.715Z,938.18
2022-11-18T12:39:33.096Z,938.36
2022-11-18T12:41:59.414Z,938.30
2022-11-18T12:44:25.784Z,938.31
2022-11-18T12:46:52.211Z,938.22
2022-11-18T12:49:18.829Z,938.18
2022-11-18T12:51:44.920Z,938.31
2022-11-18T12:54:13.887Z,938.24
2022-11-18T12:56:37.640Z,938.15
2022-11-18T12:59:03.990Z,937.91
2022-11-18T13:01:30.354Z,937.90
2022-11-18T13:03:56.708Z,937.99
2022-11-18T13:06:23.067Z,938.00
2022-11-18T13:08:49.451Z,937.90
2022-11-18T13:11:15.869Z,937.71
2022-11-18T13:13:42.202Z,937.61
2022-11-18T13:16:09.826Z,937.54
2022-11-18T13:18:34.925Z,937.41
2022-11-18T13:21:01.291Z,937.59
2022-11-18T13:23:27.640Z,937.70
2022-11-18T13:25:53.998Z,937.33
2022-11-18T13:28:20.387Z,937.51
2022-11-18T13:30:46.702Z,937.48
2022-11-18T13:33:14.800Z,937.60
2022-11-18T13:35:39.513Z,937.46
2022-11-18T13:38:05.910Z,937.38
2022-11-18T13:40:32.259Z,937.49
2022-11-18T13:42:58.621Z,937.14
2022-11-18T13:45:24.945Z,937.26
2022-11-18T13:47:51.309Z,937.51
2022-11-18T13:50:17.669Z,937.34
2022-11-18T13:52:44.031Z,937.32
2022-11-18T13:55:10.402Z,937.46
2022-11-18T13:57:36.785Z,937.53
2022-11-18T14:00:03.115Z,937.58
2022-11-18T14:02:29.458Z,937.32
2022-11-18T14:04:55.785Z,937.18
2022-11-18T14:07:22.205Z,937.32
2022-11-18T14:09:48.511Z,937.37
2022-11-18T14:12:14.849Z,937.22
2022-11-18T14:14:41.208Z,937.31
2022-11-18T14:17:07.552Z,937.24
2022-11-18T14:19:33.949Z,937.27
2022-11-18T14:22:00.324Z,937.27
2022-11-18T14:24:26.676Z,937.18
2022-11-18T14:26:53.029Z,937.08
2022-11-18T14:29:19.602Z,937.12
2022-11-18T14:31:45.693Z,937.18
2022-11-18T14:34:12.064Z,937.22
2022-11-18T14:36:41.054Z,937.03
2022-11-18T14:39:25.429Z,937.10
2022-11-18T14:41:31.233Z,937.30
2022-11-18T14:43:57.557Z,937.23
2022-11-18T14:46:23.913Z,937.35
2022-11-18T14:48:50.231Z,937.09
2022-11-18T14:51:16.767Z,937.32
2022-11-18T14:53:43.129Z,937.35
2022-11-18T14:56:09.520Z,937.22
2022-11-18T14:58:35.836Z,937.29
2022-11-18T15:01:02.218Z,937.52
2022-11-18T15:03:28.512Z,937.64
2022-11-18T15:05:54.902Z,937.52
2022-11-18T15:08:21.256Z,937.89
2022-11-18T15:10:47.605Z,937.83
2022-11-18T15:13:13.959Z,937.83
2022-11-18T15:15:40.335Z,937.63
2022-11-18T15:18:06.695Z,937.57
2022-11-18T15:20:33.033Z,937.63
2022-11-18T15:22:59.384Z,937.84
2022-11-18T15:25:25.720Z,937.65
2022-11-18T15:27:52.041Z,937.50
2022-11-18T15:30:18.449Z,937.41
2022-11-18T15:32:44.818Z,937.30
2022-11-18T15:35:11.182Z,937.19
2022-11-18T15:37:37.554Z,937.09
2022-11-18T15:40:03.929Z,937.11
2022-11-18T15:42:30.251Z,937.04
2022-11-18T15:44:56.666Z,936.97
2022-11-18T15:47:22.976Z,937.06
2022-11-18T15:49:49.367Z,937.09
2022-11-18T15:52:15.719Z,936.99
2022-11-18T15:54:42.056Z,936.96
2022-11-18T15:57:08.431Z,936.89
2022-11-18T15:59:34.818Z,936.99
2022-11-18T16:02:01.178Z,936.90
2022-11-18T16:04:27.561Z,936.72
2022-11-18T16:06:53.988Z,936.72
2022-11-18T16:09:20.558Z,936.73
2022-11-18T16:11:46.625Z,936.75
2022-11-18T16:14:13.011Z,936.80
2022-11-18T16:16:39.332Z,936.78
2022-11-18T16:19:05.714Z,936.75
2022-11-18T16:21:32.060Z,936.78
2022-11-18T16:23:58.415Z,936.81
2022-11-18T16:26:24.784Z,936.89
2022-11-18T16:28:51.130Z,937.21
2022-11-18T16:31:17.460Z,937.49
2022-11-18T16:33:43.808Z,937.64
2022-11-18T16:36:10.206Z,937.65
2022-11-18T16:38:36.545Z,937.57
2022-11-18T16:41:02.867Z,937.67
2022-11-18T16:43:29.254Z,937.62
2022-11-18T16:45:55.632Z,937.49
2022-11-18T16:48:22.008Z,937.56
2022-11-18T16:50:48.336Z,937.50
2022-11-18T16:53:14.675Z,937.52
2022-11-18T16:55:40.995Z,937.49
2022-11-18T16:58:07.383Z,937.67
2022-11-18T17:01:09.329Z,937.47
2022-11-18T17:03:00.092Z,937.38
2022-11-18T17:05:26.475Z,937.41
2022-11-18T17:07:52.918Z,937.43
2022-11-18T17:10:19.158Z,937.51
2022-11-18T17:12:45.587Z,937.42
2022-11-18T17:15:11.949Z,937.48
2022-11-18T17:17:38.394Z,937.42
2022-11-18T17:20:04.748Z,937.30
2022-11-18T17:22:31.091Z,937.28
2022-11-18T17:25:02.212Z,937.25
2022-11-18T17:27:23.871Z,937.31
2022-11-18T17:29:50.189Z,937.06
2022-11-18T17:32:16.572Z,937.13
2022-11-18T17:34:42.927Z,937.15
2022-11-18T17:37:09.309Z,937.05
2022-11-18T17:39:35.664Z,937.06
2022-11-18T17:42:02.058Z,937.04
2022-11-18T17:44:28.405Z,937.06
2022-11-18T17:46:54.750Z,937.00
2022-11-18T17:49:21.130Z,936.91
2022-11-18T17:51:47.491Z,936.92
2022-11-18T17:54:13.851Z,936.79
2022-11-18T17:56:40.185Z,936.84
2022-11-18T17:59:06.511Z,936.77
2022-11-18T18:01:32.963Z,936.97
2022-11-18T18:03:59.208Z,936.82
2022-11-18T18:06:25.576Z,936.76
2022-11-18T18:08:51.933Z,936.81
2022-11-18T18:11:18.309Z,936.72
2022-11-18T18:13:44.631Z,936.70
2022-11-18T18:16:11.025Z,936.78
2022-11-18T18:18:37.349Z,936.70
2022-11-18T18:21:05.454Z,936.69
2022-11-18T18:23:30.108Z,936.68
2022-11-18T18:25:56.476Z,936.72
2022-11-18T18:28:22.801Z,936.89
2022-11-18T18:30:49.184Z,936.82
2022-11-18T18:33:15.534Z,936.82
2022-11-18T18:35:41.924Z,936.83
2022-11-18T18:38:08.288Z,936.85
2022-11-18T18:40:34.670Z,936.88
2022-11-18T18:43:01.027Z,936.73
2022-11-18T18:45:27.449Z,936.67
2022-11-18T18:47:53.780Z,936.82
2022-11-18T18:50:23.792Z,936.81
2022-11-18T18:52:46.484Z,936.99
2022-11-18T18:55:12.865Z,936.88
2022-11-18T18:57:39.207Z,936.82
2022-11-18T19:00:05.591Z,936.96
2022-11-18T19:02:31.948Z,937.04
2022-11-18T19:04:58.288Z,937.07
2022-11-18T19:07:24.811Z,937.24
2022-11-18T19:09:51.132Z,937.18
2022-11-18T19:12:17.496Z,937.26
2022-11-18T19:14:43.825Z,937.23
2022-11-18T19:17:12.145Z,937.23
2022-11-18T19:19:36.562Z,937.21
2022-11-18T19:22:03.050Z,937.31
2022-11-18T19:26:55.615Z,937.38
2022-11-18T19:29:25.604Z,937.34
2022-11-18T19:31:48.317Z,937.30
2022-11-18T19:34:14.657Z,937.32
2022-11-18T19:36:40.978Z,937.49
2022-11-18T19:39:07.379Z,937.50
2022-11-18T19:41:33.692Z,937.47
2022-11-18T19:44:00.080Z,937.56
2022-11-18T19:46:30.446Z,937.70
2022-11-18T19:48:52.825Z,937.78
2022-11-18T19:51:19.137Z,937.95
2022-11-18T19:53:45.480Z,937.89
2022-11-18T19:56:11.841Z,938.03
2022-11-18T19:58:38.215Z,938.05
2022-11-18T20:01:04.613Z,938.16
2022-11-18T20:03:30.977Z,938.28
2022-11-18T20:05:57.298Z,938.36
2022-11-18T20:08:23.683Z,938.42
2022-11-18T20:10:50.069Z,938.50
2022-11-18T20:13:16.510Z,938.58
2022-11-18T20:15:42.878Z,938.58
2022-11-18T20:18:09.256Z,938.83
2022-11-18T20:20:35.620Z,938.78
2022-11-18T20:23:01.994Z,938.88
2022-11-18T20:25:28.362Z,938.90
2022-11-18T20:27:54.739Z,938.91
2022-11-18T20:30:21.093Z,938.98
2022-11-18T20:32:47.745Z,938.99
2022-11-18T20:35:14.098Z,939.07
2022-11-18T20:37:40.527Z,939.14
2022-11-18T20:40:06.911Z,939.06
2022-11-18T20:42:33.300Z,939.03
2022-11-18T20:44:59.621Z,939.04
2022-11-18T20:47:26.068Z,938.98
2022-11-18T20:49:52.385Z,938.98
2022-11-18T20:52:18.768Z,938.91
2022-11-18T20:54:45.167Z,938.91
2022-11-18T20:57:11.507Z,938.94
2022-11-18T20:59:37.824Z,939.08
2022-11-18T21:02:04.232Z,939.13
2022-11-18T21:04:30.582Z,939.17
2022-11-18T21:06:56.969Z,939.15
2022-11-18T21:09:23.282Z,939.09
2022-11-18T21:11:49.653Z,939.08
2022-11-18T21:14:21.635Z,939.10
2022-11-18T21:16:42.487Z,939.12
2022-11-18T21:19:08.819Z,939.14
2022-11-18T21:21:35.166Z,939.11
2022-11-18T21:24:01.559Z,939.08
2022-11-18T21:26:27.899Z,939.06
2022-11-18T21:28:54.256Z,939.07
2022-11-18T21:31:23.209Z,939.05
2022-11-18T21:33:46.959Z,939.08
2022-11-18T21:36:13.386Z,939.06
2022-11-18T21:38:39.699Z,939.07
2022-11-18T21:41:06.626Z,939.08
2022-11-18T21:44:03.342Z,939.13
2022-11-18T21:45:59.336Z,939.16
2022-11-18T21:48:25.754Z,939.20
2022-11-18T21:50:52.068Z,939.38
2022-11-18T21:53:18.453Z,939.34
2022-11-18T21:55:45.042Z,939.46
2022-11-18T21:58:11.422Z,939.41
2022-11-18T22:00:37.827Z,939.47
2022-11-18T22:03:04.150Z,939.48
2022-11-18T22:05:30.470Z,939.55
2022-11-18T22:07:56.856Z,939.58
2022-11-18T22:10:23.178Z,939.62
2022-11-18T22:12:49.565Z,939.67
2022-11-18T22:15:15.879Z,939.80
2022-11-18T22:17:42.254Z,939.84
2022-11-18T22:20:08.611Z,939.78
2022-11-18T22:22:34.999Z,939.87
2022-11-18T22:25:01.317Z,939.89
2022-11-18T22:27:27.720Z,939.92
2022-11-18T22:29:54.045Z,939.99
2022-11-18T22:32:20.399Z,939.96
2022-11-18T22:34:51.594Z,939.98
2022-11-18T22:37:13.145Z,940.06
2022-11-18T22:39:39.487Z,940.13
2022-11-18T22:42:05.878Z,940.17
2022-11-18T22:44:32.204Z,940.14
2022-11-18T22:46:58.550Z,940.18
2022-11-18T22:49:24.874Z,940.21
2022-11-18T22:51:51.215Z,940.39
2022-11-18T22:56:43.915Z,940.55
2022-11-18T22:59:10.234Z,940.65
2022-11-18T23:01:36.628Z,940.67
2022-11-18T23:04:02.979Z,940.80
2022-11-18T23:06:29.333Z,940.90
2022-11-18T23:08:55.688Z,940.91
2022-11-18T23:11:22.083Z,940.91
2022-11-18T23:13:48.437Z,940.90
2022-11-18T23:16:14.768Z,940.97
2022-11-18T23:18:41.146Z,941.10
2022-11-18T23:21:07.556Z,941.20
2022-11-18T23:23:33.918Z,941.14
2022-11-18T23:26:00.291Z,941.20
2022-11-18T23:28:26.645Z,941.19
2022-11-18T23:30:52.988Z,941.23
2022-11-18T23:33:19.375Z,941.19
2022-11-18T23:35:45.783Z,941.18
2022-11-18T23:38:12.139Z,941.18
2022-11-18T23:40:38.487Z,941.25
2022-11-18T23:43:04.810Z,941.30
2022-11-18T23:45:31.212Z,941.30
2022-11-18T23:47:57.546Z,941.38
2022-11-18T23:50:23.897Z,941.53
2022-11-18T23:52:50.269Z,941.55
2022-11-18T23:55:16.652Z,941.68
2022-11-18T23:57:42.988Z,941.59
